sensor_id;sensor_type;location;lat;lon;timestamp;temperature;humidity
29321;DHT22;16323;51.130;6.612;2023-04-06T16:56:02;17.10;55.20
29321;DHT22;16323;51.130;6.612;2023-04-06T17:12:29;17.20;55.10
29321;DHT22;16323;51.130;6.612;2023-04-06T17:14:56;17.10;55.90
29321;DHT22;16323;51.130;6.612;2023-04-06T17:17:23;17.20;55.00
29321;DHT22;16323;51.130;6.612;2023-04-06T17:19:50;17.20;55.20
29321;DHT22;16323;51.130;6.612;2023-04-06T17:22:16;17.10;55.30
29321;DHT22;16323;51.130;6.612;2023-04-06T17:24:46;17.10;55.10
29321;DHT22;16323;51.130;6.612;2023-04-06T17:27:13;17.10;55.30
29321;DHT22;16323;51.130;6.612;2023-04-06T17:29:41;17.10;55.30
29321;DHT22;16323;51.130;6.612;2023-04-06T17:32:09;17.10;55.10
29321;DHT22;16323;51.130;6.612;2023-04-06T17:34:36;17.10;55.40
29321;DHT22;16323;51.130;6.612;2023-04-06T17:37:03;17.10;55.20
29321;DHT22;16323;51.130;6.612;2023-04-06T17:39:30;17.10;55.30
29321;DHT22;16323;51.130;6.612;2023-04-06T17:41:56;17.10;55.40
29321;DHT22;16323;51.130;6.612;2023-04-06T17:44:24;17.10;55.50
29321;DHT22;16323;51.130;6.612;2023-04-06T17:46:52;17.10;55.40
29321;DHT22;16323;51.130;6.612;2023-04-06T17:49:19;17.10;55.60
29321;DHT22;16323;51.130;6.612;2023-04-06T17:51:46;17.10;55.50
29321;DHT22;16323;51.130;6.612;2023-04-06T17:54:12;17.10;55.70
29321;DHT22;16323;51.130;6.612;2023-04-06T17:56:40;17.10;55.70
29321;DHT22;16323;51.130;6.612;2023-04-06T17:59:07;17.20;55.70
29321;DHT22;16323;51.130;6.612;2023-04-06T18:01:36;17.10;55.80
29321;DHT22;16323;51.130;6.612;2023-04-06T18:04:04;17.10;55.90
29321;DHT22;16323;51.130;6.612;2023-04-06T18:06:30;17.10;56.00
29321;DHT22;16323;51.130;6.612;2023-04-06T18:08:58;17.10;56.20
29321;DHT22;16323;51.130;6.612;2023-04-06T18:11:25;17.10;56.20
29321;DHT22;16323;51.130;6.612;2023-04-06T18:13:55;17.10;56.10
29321;DHT22;16323;51.130;6.612;2023-04-06T18:16:22;17.10;56.20
29321;DHT22;16323;51.130;6.612;2023-04-06T18:18:49;17.10;56.30
29321;DHT22;16323;51.130;6.612;2023-04-06T18:21:17;17.10;56.40
29321;DHT22;16323;51.130;6.612;2023-04-06T18:23:45;17.10;56.50
29321;DHT22;16323;51.130;6.612;2023-04-06T18:26:16;17.10;56.40
29321;DHT22;16323;51.130;6.612;2023-04-06T18:28:44;17.10;57.70
29321;DHT22;16323;51.130;6.612;2023-04-06T18:31:11;17.10;56.10
29321;DHT22;16323;51.130;6.612;2023-04-06T18:33:38;17.10;56.60
29321;DHT22;16323;51.130;6.612;2023-04-06T18:36:05;17.10;57.20
29321;DHT22;16323;51.130;6.612;2023-04-06T18:38:35;17.20;57.40
29321;DHT22;16323;51.130;6.612;2023-04-06T18:41:03;17.20;56.60
29321;DHT22;16323;51.130;6.612;2023-04-06T18:43:30;17.20;56.60
29321;DHT22;16323;51.130;6.612;2023-04-06T18:45:57;17.20;56.60
29321;DHT22;16323;51.130;6.612;2023-04-06T18:48:25;17.20;56.60
29321;DHT22;16323;51.130;6.612;2023-04-06T18:50:52;17.20;56.50
29321;DHT22;16323;51.130;6.612;2023-04-06T18:53:19;17.20;56.70
29321;DHT22;16323;51.130;6.612;2023-04-06T18:55:49;17.10;56.60
29321;DHT22;16323;51.130;6.612;2023-04-06T18:58:16;17.10;56.60
